sensor_id;sensor_type;location;lat;lon;timestamp;P1;durP1;ratioP1;P2;durP2;ratioP2
56752;SDS011;42627;42.646;23.642;2024-02-23T00:00:10;7.47;;;3.42;;
56752;SDS011;42627;42.646;23.642;2024-02-23T00:02:11;7.57;;;3.25;;
56752;SDS011;42627;42.646;23.642;2024-02-23T00:04:12;6.35;;;2.80;;
56752;SDS011;42627;42.646;23.642;2024-02-23T00:06:13;9.02;;;3.80;;
56752;SDS011;42627;42.646;23.642;2024-02-23T00:08:14;8.32;;;3.85;;
56752;SDS011;42627;42.646;23.642;2024-02-23T00:12:44;6.30;;;3.35;;
56752;SDS011;42627;42.646;23.642;2024-02-23T00:14:54;8.65;;;4.03;;
56752;SDS011;42627;42.646;23.642;2024-02-23T00:16:55;9.38;;;3.65;;
56752;SDS011;42627;42.646;23.642;2024-02-23T00:18:57;5.65;;;2.90;;
56752;SDS011;42627;42.646;23.642;2024-02-23T00:20:58;6.78;;;3.10;;
56752;SDS011;42627;42.646;23.642;2024-02-23T00:22:59;5.55;;;2.90;;
56752;SDS011;42627;42.646;23.642;2024-02-23T00:25:00;5.93;;;3.25;;
56752;SDS011;42627;42.646;23.642;2024-02-23T00:27:01;6.18;;;2.95;;
56752;SDS011;42627;42.646;23.642;2024-02-23T00:29:02;7.55;;;3.85;;
56752;SDS011;42627;42.646;23.642;2024-02-23T00:31:03;6.55;;;2.97;;
56752;SDS011;42627;42.646;23.642;2024-02-23T00:33:04;7.70;;;3.55;;
56752;SDS011;42627;42.646;23.642;2024-02-23T00:35:05;6.20;;;3.22;;
56752;SDS011;42627;42.646;23.642;2024-02-23T00:37:06;8.43;;;3.92;;
56752;SDS011;42627;42.646;23.642;2024-02-23T00:39:08;7.65;;;3.35;;
56752;SDS011;42627;42.646;23.642;2024-02-23T00:41:09;7.97;;;3.95;;
56752;SDS011;42627;42.646;23.642;2024-02-23T00:45:21;9.30;;;4.18;;
56752;SDS011;42627;42.646;23.642;2024-02-23T00:47:22;5.07;;;2.90;;
56752;SDS011;42627;42.646;23.642;2024-02-23T00:49:23;7.40;;;3.72;;
56752;SDS011;42627;42.646;23.642;2024-02-23T00:51:24;6.72;;;3.70;;
56752;SDS011;42627;42.646;23.642;2024-02-23T00:53:26;8.82;;;3.50;;
56752;SDS011;42627;42.646;23.642;2024-02-23T00:55:27;6.85;;;3.88;;
56752;SDS011;42627;42.646;23.642;2024-02-23T00:57:28;8.80;;;3.42;;
56752;SDS011;42627;42.646;23.642;2024-02-23T00:59:39;10.00;;;3.47;;
56752;SDS011;42627;42.646;23.642;2024-02-23T01:01:49;6.05;;;3.13;;
56752;SDS011;42627;42.646;23.642;2024-02-23T01:10:22;7.45;;;3.33;;
56752;SDS011;42627;42.646;23.642;2024-02-23T01:18:56;8.68;;;3.95;;
56752;SDS011;42627;42.646;23.642;2024-02-23T01:20:57;9.73;;;3.88;;
56752;SDS011;42627;42.646;23.642;2024-02-23T01:22:58;6.03;;;3.42;;
56752;SDS011;42627;42.646;23.642;2024-02-23T01:24:59;8.90;;;3.35;;
56752;SDS011;42627;42.646;23.642;2024-02-23T01:27:00;8.02;;;3.60;;
56752;SDS011;42627;42.646;23.642;2024-02-23T01:29:01;7.70;;;3.63;;
56752;SDS011;42627;42.646;23.642;2024-02-23T01:31:03;9.88;;;4.22;;
56752;SDS011;42627;42.646;23.642;2024-02-23T01:33:16;11.85;;;5.07;;
56752;SDS011;42627;42.646;23.642;2024-02-23T01:35:26;7.95;;;4.25;;
56752;SDS011;42627;42.646;23.642;2024-02-23T01:37:36;9.25;;;3.95;;
56752;SDS011;42627;42.646;23.642;2024-02-23T01:39:37;8.65;;;3.58;;
56752;SDS011;42627;42.646;23.642;2024-02-23T01:41:39;8.90;;;4.40;;
56752;SDS011;42627;42.646;23.642;2024-02-23T01:43:40;8.07;;;3.70;;
56752;SDS011;42627;42.646;23.642;2024-02-23T01:45:41;8.23;;;3.85;;
56752;SDS011;42627;42.646;23.642;2024-02-23T01:47:42;9.95;;;3.85;;
56752;SDS011;42627;42.646;23.642;2024-02-23T01:49:44;7.90;;;4.18;;
56752;SDS011;42627;42.646;23.642;2024-02-23T01:51:45;9.45;;;4.15;;
56752;SDS011;42627;42.646;23.642;2024-02-23T01:53:46;7.72;;;4.07;;
56752;SDS011;42627;42.646;23.642;2024-02-23T01:55:48;8.50;;;3.80;;
56752;SDS011;42627;42.646;23.642;2024-02-23T01:57:49;9.00;;;3.60;;
56752;SDS011;42627;42.646;23.642;2024-02-23T01:59:50;7.50;;;3.75;;
56752;SDS011;42627;42.646;23.642;2024-02-23T02:01:52;9.30;;;4.35;;
56752;SDS011;42627;42.646;23.642;2024-02-23T02:03:53;8.25;;;4.25;;
56752;SDS011;42627;42.646;23.642;2024-02-23T02:05:56;10.23;;;4.75;;
56752;SDS011;42627;42.646;23.642;2024-02-23T02:08:09;9.38;;;3.80;;
56752;SDS011;42627;42.646;23.642;2024-02-23T02:10:11;6.95;;;4.03;;
56752;SDS011;42627;42.646;23.642;2024-02-23T02:12:12;7.00;;;3.63;;
56752;SDS011;42627;42.646;23.642;2024-02-23T02:14:13;9.98;;;3.75;;
56752;SDS011;42627;42.646;23.642;2024-02-23T02:16:15;6.88;;;3.33;;
56752;SDS011;42627;42.646;23.642;2024-02-23T02:18:16;13.38;;;5.22;;
56752;SDS011;42627;42.646;23.642;2024-02-23T02:20:17;7.43;;;4.05;;
56752;SDS011;42627;42.646;23.642;2024-02-23T02:22:19;9.02;;;4.97;;
56752;SDS011;42627;42.646;23.642;2024-02-23T02:24:29;11.40;;;4.85;;
56752;SDS011;42627;42.646;23.642;2024-02-23T02:26:39;10.98;;;5.00;;
56752;SDS011;42627;42.646;23.642;2024-02-23T02:28:49;8.63;;;3.78;;
56752;SDS011;42627;42.646;23.642;2024-02-23T02:30:51;10.48;;;4.97;;
56752;SDS011;42627;42.646;23.642;2024-02-23T02:32:54;9.00;;;4.70;;
56752;SDS011;42627;42.646;23.642;2024-02-23T02:37:06;19.13;;;6.45;;
56752;SDS011;42627;42.646;23.642;2024-02-23T02:43:29;11.25;;;5.22;;
56752;SDS011;42627;42.646;23.642;2024-02-23T02:45:30;14.95;;;6.80;;
56752;SDS011;42627;42.646;23.642;2024-02-23T02:53:55;12.90;;;5.55;;
56752;SDS011;42627;42.646;23.642;2024-02-23T03:05:07;13.10;;;5.28;;
56752;SDS011;42627;42.646;23.642;2024-02-23T03:09:19;11.23;;;4.63;;
56752;SDS011;42627;42.646;23.642;2024-02-23T03:11:20;13.30;;;5.85;;
56752;SDS011;42627;42.646;23.642;2024-02-23T03:15:32;8.73;;;4.80;;
56752;SDS011;42627;42.646;23.642;2024-02-23T03:17:33;10.43;;;4.65;;
56752;SDS011;42627;42.646;23.642;2024-02-23T03:19:35;10.60;;;4.38;;
56752;SDS011;42627;42.646;23.642;2024-02-23T03:21:36;8.80;;;4.55;;
56752;SDS011;42627;42.646;23.642;2024-02-23T03:23:37;11.25;;;5.65;;
56752;SDS011;42627;42.646;23.642;2024-02-23T03:25:38;10.80;;;5.22;;
56752;SDS011;42627;42.646;23.642;2024-02-23T03:32:01;12.65;;;5.22;;
56752;SDS011;42627;42.646;23.642;2024-02-23T03:34:02;11.07;;;4.78;;
56752;SDS011;42627;42.646;23.642;2024-02-23T03:36:03;8.85;;;4.90;;
56752;SDS011;42627;42.646;23.642;2024-02-23T03:38:05;9.50;;;4.85;;
56752;SDS011;42627;42.646;23.642;2024-02-23T03:40:06;9.05;;;4.85;;
56752;SDS011;42627;42.646;23.642;2024-02-23T03:42:07;7.45;;;3.90;;
56752;SDS011;42627;42.646;23.642;2024-02-23T03:44:17;11.13;;;5.03;;
56752;SDS011;42627;42.646;23.642;2024-02-23T03:46:45;12.90;;;6.20;;
56752;SDS011;42627;42.646;23.642;2024-02-23T03:48:55;10.10;;;4.82;;
56752;SDS011;42627;42.646;23.642;2024-02-23T03:50:57;14.02;;;5.53;;
56752;SDS011;42627;42.646;23.642;2024-02-23T03:52:59;12.65;;;5.30;;
56752;SDS011;42627;42.646;23.642;2024-02-23T03:55:00;11.90;;;6.07;;
56752;SDS011;42627;42.646;23.642;2024-02-23T03:57:01;9.90;;;5.35;;
56752;SDS011;42627;42.646;23.642;2024-02-23T04:14:38;10.25;;;4.57;;
56752;SDS011;42627;42.646;23.642;2024-02-23T04:16:40;10.10;;;5.18;;
56752;SDS011;42627;42.646;23.642;2024-02-23T04:18:41;10.18;;;4.80;;
56752;SDS011;42627;42.646;23.642;2024-02-23T04:20:42;10.88;;;4.85;;
56752;SDS011;42627;42.646;23.642;2024-02-23T04:25:22;12.63;;;5.25;;
56752;SDS011;42627;42.646;23.642;2024-02-23T04:27:23;10.80;;;4.85;;
56752;SDS011;42627;42.646;23.642;2024-02-23T04:29:26;9.60;;;5.15;;
56752;SDS011;42627;42.646;23.642;2024-02-23T04:35:55;13.45;;;6.18;;
56752;SDS011;42627;42.646;23.642;2024-02-23T04:37:56;11.07;;;4.90;;
56752;SDS011;42627;42.646;23.642;2024-02-23T04:39:57;13.25;;;6.18;;
56752;SDS011;42627;42.646;23.642;2024-02-23T04:41:58;16.77;;;5.38;;
56752;SDS011;42627;42.646;23.642;2024-02-23T04:43:59;15.18;;;5.45;;
56752;SDS011;42627;42.646;23.642;2024-02-23T04:46:01;12.23;;;6.53;;
56752;SDS011;42627;42.646;23.642;2024-02-23T04:48:11;13.27;;;5.72;;
56752;SDS011;42627;42.646;23.642;2024-02-23T04:50:12;10.63;;;6.13;;
56752;SDS011;42627;42.646;23.642;2024-02-23T04:52:13;11.35;;;6.30;;
56752;SDS011;42627;42.646;23.642;2024-02-23T04:54:14;13.98;;;5.70;;
56752;SDS011;42627;42.646;23.642;2024-02-23T04:56:16;12.63;;;6.63;;
56752;SDS011;42627;42.646;23.642;2024-02-23T04:58:25;22.67;;;9.80;;
56752;SDS011;42627;42.646;23.642;2024-02-23T05:00:35;47.05;;;16.30;;
56752;SDS011;42627;42.646;23.642;2024-02-23T05:02:47;33.75;;;10.45;;
56752;SDS011;42627;42.646;23.642;2024-02-23T05:04:49;18.67;;;8.05;;
56752;SDS011;42627;42.646;23.642;2024-02-23T05:06:50;17.17;;;7.65;;
56752;SDS011;42627;42.646;23.642;2024-02-23T05:08:51;14.55;;;6.93;;
56752;SDS011;42627;42.646;23.642;2024-02-23T05:10:52;12.93;;;6.18;;
56752;SDS011;42627;42.646;23.642;2024-02-23T05:12:53;11.98;;;5.70;;
56752;SDS011;42627;42.646;23.642;2024-02-23T05:14:55;12.02;;;5.45;;
56752;SDS011;42627;42.646;23.642;2024-02-23T05:16:56;14.82;;;6.75;;
56752;SDS011;42627;42.646;23.642;2024-02-23T05:19:06;16.02;;;7.32;;
56752;SDS011;42627;42.646;23.642;2024-02-23T05:21:07;19.27;;;7.47;;
56752;SDS011;42627;42.646;23.642;2024-02-23T05:23:08;11.88;;;6.15;;
56752;SDS011;42627;42.646;23.642;2024-02-23T05:25:09;11.57;;;6.28;;
56752;SDS011;42627;42.646;23.642;2024-02-23T05:27:10;17.15;;;5.60;;
56752;SDS011;42627;42.646;23.642;2024-02-23T05:36:09;15.80;;;6.72;;
56752;SDS011;42627;42.646;23.642;2024-02-23T05:44:58;13.27;;;6.88;;
56752;SDS011;42627;42.646;23.642;2024-02-23T05:49:16;11.55;;;6.30;;
56752;SDS011;42627;42.646;23.642;2024-02-23T05:51:17;9.70;;;4.90;;
56752;SDS011;42627;42.646;23.642;2024-02-23T05:57:43;10.98;;;4.65;;
56752;SDS011;42627;42.646;23.642;2024-02-23T06:01:55;12.45;;;5.10;;
56752;SDS011;42627;42.646;23.642;2024-02-23T06:33:25;9.45;;;4.63;;
56752;SDS011;42627;42.646;23.642;2024-02-23T06:35:26;10.13;;;5.45;;
56752;SDS011;42627;42.646;23.642;2024-02-23T06:37:36;11.15;;;5.20;;
56752;SDS011;42627;42.646;23.642;2024-02-23T06:52:42;10.45;;;5.82;;
56752;SDS011;42627;42.646;23.642;2024-02-23T06:54:43;12.40;;;6.20;;
56752;SDS011;42627;42.646;23.642;2024-02-23T06:56:45;13.25;;;6.90;;
56752;SDS011;42627;42.646;23.642;2024-02-23T06:58:46;11.35;;;6.70;;
56752;SDS011;42627;42.646;23.642;2024-02-23T07:00:47;13.75;;;6.35;;
56752;SDS011;42627;42.646;23.642;2024-02-23T07:02:48;17.73;;;7.63;;
56752;SDS011;42627;42.646;23.642;2024-02-23T07:04:49;13.65;;;6.25;;
56752;SDS011;42627;42.646;23.642;2024-02-23T07:06:59;12.02;;;6.13;;
56752;SDS011;42627;42.646;23.642;2024-02-23T07:09:07;11.63;;;5.68;;
56752;SDS011;42627;42.646;23.642;2024-02-23T07:11:08;11.25;;;5.32;;
56752;SDS011;42627;42.646;23.642;2024-02-23T07:13:10;9.30;;;4.55;;
56752;SDS011;42627;42.646;23.642;2024-02-23T07:15:11;9.68;;;4.40;;
56752;SDS011;42627;42.646;23.642;2024-02-23T07:17:12;12.25;;;5.00;;
56752;SDS011;42627;42.646;23.642;2024-02-23T07:19:13;9.65;;;5.18;;
56752;SDS011;42627;42.646;23.642;2024-02-23T07:21:17;8.65;;;4.05;;
56752;SDS011;42627;42.646;23.642;2024-02-23T07:23:27;9.50;;;4.63;;
56752;SDS011;42627;42.646;23.642;2024-02-23T07:25:37;9.98;;;4.90;;
56752;SDS011;42627;42.646;23.642;2024-02-23T07:27:48;9.13;;;4.63;;
56752;SDS011;42627;42.646;23.642;2024-02-23T08:13:11;6.88;;;4.03;;
56752;SDS011;42627;42.646;23.642;2024-02-23T08:15:12;12.25;;;3.90;;
56752;SDS011;42627;42.646;23.642;2024-02-23T08:17:13;7.25;;;4.13;;
56752;SDS011;42627;42.646;23.642;2024-02-23T08:19:14;8.30;;;3.25;;
56752;SDS011;42627;42.646;23.642;2024-02-23T08:21:15;6.72;;;3.00;;
56752;SDS011;42627;42.646;23.642;2024-02-23T08:23:16;7.53;;;3.63;;
56752;SDS011;42627;42.646;23.642;2024-02-23T08:25:19;5.47;;;2.63;;
56752;SDS011;42627;42.646;23.642;2024-02-23T08:27:20;12.45;;;6.15;;
56752;SDS011;42627;42.646;23.642;2024-02-23T08:29:21;9.15;;;4.25;;
56752;SDS011;42627;42.646;23.642;2024-02-23T08:31:22;8.63;;;4.00;;
56752;SDS011;42627;42.646;23.642;2024-02-23T08:33:23;6.47;;;3.15;;
56752;SDS011;42627;42.646;23.642;2024-02-23T08:35:24;4.88;;;2.38;;
56752;SDS011;42627;42.646;23.642;2024-02-23T08:37:25;4.68;;;2.20;;
56752;SDS011;42627;42.646;23.642;2024-02-23T08:39:26;4.60;;;2.60;;
56752;SDS011;42627;42.646;23.642;2024-02-23T08:43:48;4.65;;;2.75;;
56752;SDS011;42627;42.646;23.642;2024-02-23T08:45:50;6.40;;;3.13;;
56752;SDS011;42627;42.646;23.642;2024-02-23T08:47:51;5.07;;;3.03;;
56752;SDS011;42627;42.646;23.642;2024-02-23T08:49:52;5.75;;;2.75;;
56752;SDS011;42627;42.646;23.642;2024-02-23T08:52:02;5.47;;;3.08;;
56752;SDS011;42627;42.646;23.642;2024-02-23T08:54:30;5.47;;;2.33;;
56752;SDS011;42627;42.646;23.642;2024-02-23T08:56:41;7.18;;;3.35;;
56752;SDS011;42627;42.646;23.642;2024-02-23T09:29:13;7.88;;;3.38;;
56752;SDS011;42627;42.646;23.642;2024-02-23T09:31:15;6.70;;;2.90;;
56752;SDS011;42627;42.646;23.642;2024-02-23T09:33:16;6.72;;;3.00;;
56752;SDS011;42627;42.646;23.642;2024-02-23T09:35:17;5.18;;;2.63;;
56752;SDS011;42627;42.646;23.642;2024-02-23T09:37:18;6.50;;;3.20;;
56752;SDS011;42627;42.646;23.642;2024-02-23T09:39:19;5.72;;;2.78;;
56752;SDS011;42627;42.646;23.642;2024-02-23T09:41:21;11.23;;;4.30;;
56752;SDS011;42627;42.646;23.642;2024-02-23T09:43:23;7.47;;;3.70;;
56752;SDS011;42627;42.646;23.642;2024-02-23T09:45:27;5.65;;;3.10;;
56752;SDS011;42627;42.646;23.642;2024-02-23T09:47:29;3.83;;;2.50;;
56752;SDS011;42627;42.646;23.642;2024-02-23T09:49:30;6.65;;;3.28;;
56752;SDS011;42627;42.646;23.642;2024-02-23T09:51:31;5.80;;;3.30;;
56752;SDS011;42627;42.646;23.642;2024-02-23T09:53:33;6.53;;;2.88;;
56752;SDS011;42627;42.646;23.642;2024-02-23T09:55:37;5.25;;;2.90;;
56752;SDS011;42627;42.646;23.642;2024-02-23T09:57:38;5.63;;;2.88;;
56752;SDS011;42627;42.646;23.642;2024-02-23T09:59:40;4.40;;;2.40;;
56752;SDS011;42627;42.646;23.642;2024-02-23T10:01:41;4.82;;;2.35;;
56752;SDS011;42627;42.646;23.642;2024-02-23T10:03:43;6.13;;;2.30;;
56752;SDS011;42627;42.646;23.642;2024-02-23T10:05:45;4.30;;;2.25;;
56752;SDS011;42627;42.646;23.642;2024-02-23T10:07:46;4.22;;;2.05;;
56752;SDS011;42627;42.646;23.642;2024-02-23T10:09:47;6.13;;;3.15;;
56752;SDS011;42627;42.646;23.642;2024-02-23T10:12:01;5.57;;;2.97;;
56752;SDS011;42627;42.646;23.642;2024-02-23T10:14:12;4.65;;;2.25;;
56752;SDS011;42627;42.646;23.642;2024-02-23T10:16:22;6.28;;;2.65;;
56752;SDS011;42627;42.646;23.642;2024-02-23T10:18:23;4.68;;;2.25;;
56752;SDS011;42627;42.646;23.642;2024-02-23T10:24:46;4.55;;;2.00;;
56752;SDS011;42627;42.646;23.642;2024-02-23T10:26:47;5.20;;;1.95;;
56752;SDS011;42627;42.646;23.642;2024-02-23T10:28:48;4.88;;;2.03;;
56752;SDS011;42627;42.646;23.642;2024-02-23T10:33:29;4.88;;;2.38;;
56752;SDS011;42627;42.646;23.642;2024-02-23T10:35:31;4.25;;;2.03;;
56752;SDS011;42627;42.646;23.642;2024-02-23T11:30:28;3.10;;;0.82;;
56752;SDS011;42627;42.646;23.642;2024-02-23T11:43:34;3.47;;;1.30;;
56752;SDS011;42627;42.646;23.642;2024-02-23T11:48:22;2.58;;;0.95;;
56752;SDS011;42627;42.646;23.642;2024-02-23T11:50:33;2.08;;;1.10;;
56752;SDS011;42627;42.646;23.642;2024-02-23T11:52:34;2.53;;;1.02;;
56752;SDS011;42627;42.646;23.642;2024-02-23T11:54:35;1.75;;;0.70;;
56752;SDS011;42627;42.646;23.642;2024-02-23T11:56:36;1.92;;;1.05;;
56752;SDS011;42627;42.646;23.642;2024-02-23T11:58:37;3.50;;;1.60;;
56752;SDS011;42627;42.646;23.642;2024-02-23T12:00:39;2.70;;;1.55;;
56752;SDS011;42627;42.646;23.642;2024-02-23T12:02:40;2.83;;;1.52;;
56752;SDS011;42627;42.646;23.642;2024-02-23T12:07:06;3.75;;;1.08;;
56752;SDS011;42627;42.646;23.642;2024-02-23T12:09:25;5.25;;;1.80;;
56752;SDS011;42627;42.646;23.642;2024-02-23T12:11:45;3.03;;;1.55;;
56752;SDS011;42627;42.646;23.642;2024-02-23T12:15:56;8.18;;;2.28;;
56752;SDS011;42627;42.646;23.642;2024-02-23T12:37:14;3.72;;;1.20;;
56752;SDS011;42627;42.646;23.642;2024-02-23T12:39:16;2.92;;;1.00;;
56752;SDS011;42627;42.646;23.642;2024-02-23T12:41:17;4.57;;;1.40;;
56752;SDS011;42627;42.646;23.642;2024-02-23T12:43:18;3.80;;;1.55;;
56752;SDS011;42627;42.646;23.642;2024-02-23T12:45:24;3.97;;;1.45;;
56752;SDS011;42627;42.646;23.642;2024-02-23T12:47:25;1.83;;;1.00;;
56752;SDS011;42627;42.646;23.642;2024-02-23T12:49:26;4.45;;;1.40;;
56752;SDS011;42627;42.646;23.642;2024-02-23T12:51:27;3.47;;;1.10;;
56752;SDS011;42627;42.646;23.642;2024-02-23T12:53:35;1.95;;;0.75;;
56752;SDS011;42627;42.646;23.642;2024-02-23T12:55:37;2.35;;;1.10;;
56752;SDS011;42627;42.646;23.642;2024-02-23T12:57:40;2.92;;;1.27;;
56752;SDS011;42627;42.646;23.642;2024-02-23T12:59:41;1.98;;;1.10;;
56752;SDS011;42627;42.646;23.642;2024-02-23T13:01:42;3.03;;;1.42;;
56752;SDS011;42627;42.646;23.642;2024-02-23T13:03:43;4.53;;;1.48;;
56752;SDS011;42627;42.646;23.642;2024-02-23T13:05:54;3.63;;;1.30;;
56752;SDS011;42627;42.646;23.642;2024-02-23T13:07:57;3.95;;;1.58;;
56752;SDS011;42627;42.646;23.642;2024-02-23T13:09:58;3.47;;;1.33;;
56752;SDS011;42627;42.646;23.642;2024-02-23T13:12:02;5.90;;;1.08;;
56752;SDS011;42627;42.646;23.642;2024-02-23T13:14:03;2.35;;;1.10;;
56752;SDS011;42627;42.646;23.642;2024-02-23T13:16:10;2.38;;;1.00;;
56752;SDS011;42627;42.646;23.642;2024-02-23T13:18:24;2.88;;;1.10;;
56752;SDS011;42627;42.646;23.642;2024-02-23T13:20:34;4.63;;;1.17;;
56752;SDS011;42627;42.646;23.642;2024-02-23T13:22:38;6.03;;;2.05;;
56752;SDS011;42627;42.646;23.642;2024-02-23T13:31:12;4.38;;;1.20;;
56752;SDS011;42627;42.646;23.642;2024-02-23T13:33:14;3.08;;;1.30;;
56752;SDS011;42627;42.646;23.642;2024-02-23T13:35:21;3.65;;;1.77;;
56752;SDS011;42627;42.646;23.642;2024-02-23T13:37:22;3.90;;;1.25;;
56752;SDS011;42627;42.646;23.642;2024-02-23T13:43:44;7.43;;;1.80;;
56752;SDS011;42627;42.646;23.642;2024-02-23T13:47:59;4.93;;;1.55;;
56752;SDS011;42627;42.646;23.642;2024-02-23T13:50:12;3.75;;;1.25;;
56752;SDS011;42627;42.646;23.642;2024-02-23T13:56:35;3.58;;;1.40;;
56752;SDS011;42627;42.646;23.642;2024-02-23T13:58:39;2.55;;;1.10;;
56752;SDS011;42627;42.646;23.642;2024-02-23T14:00:40;1.75;;;0.98;;
56752;SDS011;42627;42.646;23.642;2024-02-23T14:02:41;2.40;;;1.23;;
56752;SDS011;42627;42.646;23.642;2024-02-23T14:04:43;3.90;;;1.73;;
56752;SDS011;42627;42.646;23.642;2024-02-23T14:06:45;3.10;;;1.13;;
56752;SDS011;42627;42.646;23.642;2024-02-23T14:08:46;2.55;;;1.25;;
56752;SDS011;42627;42.646;23.642;2024-02-23T14:10:52;2.50;;;1.00;;
56752;SDS011;42627;42.646;23.642;2024-02-23T14:12:57;2.67;;;0.98;;
56752;SDS011;42627;42.646;23.642;2024-02-23T14:14:59;4.07;;;1.42;;
56752;SDS011;42627;42.646;23.642;2024-02-23T14:17:00;3.53;;;1.83;;
56752;SDS011;42627;42.646;23.642;2024-02-23T14:19:02;4.65;;;1.00;;
56752;SDS011;42627;42.646;23.642;2024-02-23T14:21:18;3.08;;;1.38;;
56752;SDS011;42627;42.646;23.642;2024-02-23T14:27:42;4.28;;;1.75;;
56752;SDS011;42627;42.646;23.642;2024-02-23T14:34:40;4.90;;;1.48;;
56752;SDS011;42627;42.646;23.642;2024-02-23T14:36:44;4.28;;;1.90;;
56752;SDS011;42627;42.646;23.642;2024-02-23T14:38:45;2.60;;;1.48;;
56752;SDS011;42627;42.646;23.642;2024-02-23T14:43:09;7.95;;;2.33;;
56752;SDS011;42627;42.646;23.642;2024-02-23T14:45:13;2.75;;;1.45;;
56752;SDS011;42627;42.646;23.642;2024-02-23T15:02:32;2.83;;;1.35;;
56752;SDS011;42627;42.646;23.642;2024-02-23T15:04:33;2.65;;;1.10;;
56752;SDS011;42627;42.646;23.642;2024-02-23T15:06:34;2.42;;;1.10;;
56752;SDS011;42627;42.646;23.642;2024-02-23T15:08:38;2.97;;;1.33;;
56752;SDS011;42627;42.646;23.642;2024-02-23T15:10:48;7.25;;;2.20;;
56752;SDS011;42627;42.646;23.642;2024-02-23T15:12:55;5.00;;;2.10;;
56752;SDS011;42627;42.646;23.642;2024-02-23T15:15:05;4.32;;;1.98;;
56752;SDS011;42627;42.646;23.642;2024-02-23T15:17:07;5.70;;;2.08;;
56752;SDS011;42627;42.646;23.642;2024-02-23T15:19:08;4.22;;;1.95;;
56752;SDS011;42627;42.646;23.642;2024-02-23T15:21:10;5.97;;;2.33;;
56752;SDS011;42627;42.646;23.642;2024-02-23T15:23:12;4.60;;;2.10;;
56752;SDS011;42627;42.646;23.642;2024-02-23T15:25:13;4.90;;;2.28;;
56752;SDS011;42627;42.646;23.642;2024-02-23T15:27:15;8.00;;;1.90;;
56752;SDS011;42627;42.646;23.642;2024-02-23T15:29:17;8.02;;;2.22;;
56752;SDS011;42627;42.646;23.642;2024-02-23T15:31:18;4.53;;;2.08;;
56752;SDS011;42627;42.646;23.642;2024-02-23T15:33:21;4.03;;;2.00;;
56752;SDS011;42627;42.646;23.642;2024-02-23T15:35:22;3.78;;;1.85;;
56752;SDS011;42627;42.646;23.642;2024-02-23T15:37:26;5.43;;;2.60;;
56752;SDS011;42627;42.646;23.642;2024-02-23T15:39:27;4.65;;;2.38;;
56752;SDS011;42627;42.646;23.642;2024-02-23T15:41:28;6.10;;;3.10;;
56752;SDS011;42627;42.646;23.642;2024-02-23T15:43:30;7.47;;;3.67;;
56752;SDS011;42627;42.646;23.642;2024-02-23T15:45:31;4.18;;;2.00;;
56752;SDS011;42627;42.646;23.642;2024-02-23T15:47:32;4.75;;;2.30;;
56752;SDS011;42627;42.646;23.642;2024-02-23T15:49:33;4.40;;;2.40;;
56752;SDS011;42627;42.646;23.642;2024-02-23T15:51:34;5.03;;;2.88;;
56752;SDS011;42627;42.646;23.642;2024-02-23T15:53:37;8.60;;;3.08;;
56752;SDS011;42627;42.646;23.642;2024-02-23T15:55:38;5.07;;;2.95;;
56752;SDS011;42627;42.646;23.642;2024-02-23T15:57:39;5.97;;;2.90;;
56752;SDS011;42627;42.646;23.642;2024-02-23T15:59:49;7.85;;;3.92;;
56752;SDS011;42627;42.646;23.642;2024-02-23T16:07:03;6.70;;;3.10;;
56752;SDS011;42627;42.646;23.642;2024-02-23T16:09:06;9.40;;;4.63;;
56752;SDS011;42627;42.646;23.642;2024-02-23T16:11:08;7.13;;;3.22;;
56752;SDS011;42627;42.646;23.642;2024-02-23T16:13:10;9.93;;;3.58;;
56752;SDS011;42627;42.646;23.642;2024-02-23T16:15:11;10.15;;;4.20;;
56752;SDS011;42627;42.646;23.642;2024-02-23T16:17:12;11.85;;;4.53;;
56752;SDS011;42627;42.646;23.642;2024-02-23T16:21:24;13.65;;;5.90;;
56752;SDS011;42627;42.646;23.642;2024-02-23T16:23:26;10.55;;;5.20;;
56752;SDS011;42627;42.646;23.642;2024-02-23T16:25:27;11.48;;;5.32;;
56752;SDS011;42627;42.646;23.642;2024-02-23T16:27:28;11.00;;;5.25;;
56752;SDS011;42627;42.646;23.642;2024-02-23T16:29:29;11.63;;;5.28;;
56752;SDS011;42627;42.646;23.642;2024-02-23T16:31:31;13.63;;;6.97;;
56752;SDS011;42627;42.646;23.642;2024-02-23T16:33:32;16.25;;;5.75;;
56752;SDS011;42627;42.646;23.642;2024-02-23T16:35:42;17.38;;;6.35;;
56752;SDS011;42627;42.646;23.642;2024-02-23T16:37:52;17.45;;;8.10;;
56752;SDS011;42627;42.646;23.642;2024-02-23T16:42:33;18.65;;;8.73;;
56752;SDS011;42627;42.646;23.642;2024-02-23T16:44:34;14.77;;;8.40;;
56752;SDS011;42627;42.646;23.642;2024-02-23T16:46:36;22.15;;;10.25;;
56752;SDS011;42627;42.646;23.642;2024-02-23T16:48:37;16.10;;;8.60;;
56752;SDS011;42627;42.646;23.642;2024-02-23T16:50:53;10.32;;;4.93;;
56752;SDS011;42627;42.646;23.642;2024-02-23T16:52:56;8.65;;;2.92;;
56752;SDS011;42627;42.646;23.642;2024-02-23T16:54:57;9.25;;;4.15;;
56752;SDS011;42627;42.646;23.642;2024-02-23T16:56:59;7.32;;;4.07;;
56752;SDS011;42627;42.646;23.642;2024-02-23T16:59:00;12.48;;;6.82;;
56752;SDS011;42627;42.646;23.642;2024-02-23T17:01:05;18.10;;;8.85;;
56752;SDS011;42627;42.646;23.642;2024-02-23T17:03:07;19.83;;;8.55;;
56752;SDS011;42627;42.646;23.642;2024-02-23T17:05:17;13.98;;;6.53;;
56752;SDS011;42627;42.646;23.642;2024-02-23T17:07:18;9.70;;;4.65;;
56752;SDS011;42627;42.646;23.642;2024-02-23T17:09:19;8.13;;;4.07;;
56752;SDS011;42627;42.646;23.642;2024-02-23T17:11:20;7.93;;;3.85;;
56752;SDS011;42627;42.646;23.642;2024-02-23T17:13:34;7.47;;;4.22;;
56752;SDS011;42627;42.646;23.642;2024-02-23T17:15:53;8.43;;;4.72;;
56752;SDS011;42627;42.646;23.642;2024-02-23T17:22:35;14.30;;;5.35;;
56752;SDS011;42627;42.646;23.642;2024-02-23T17:24:37;12.05;;;4.97;;
56752;SDS011;42627;42.646;23.642;2024-02-23T17:26:38;9.95;;;4.95;;
56752;SDS011;42627;42.646;23.642;2024-02-23T17:28:42;15.55;;;5.03;;
56752;SDS011;42627;42.646;23.642;2024-02-23T17:30:44;8.48;;;4.10;;
56752;SDS011;42627;42.646;23.642;2024-02-23T17:32:45;13.70;;;5.70;;
56752;SDS011;42627;42.646;23.642;2024-02-23T17:35:05;7.78;;;4.05;;
56752;SDS011;42627;42.646;23.642;2024-02-23T17:37:06;10.27;;;4.18;;
56752;SDS011;42627;42.646;23.642;2024-02-23T17:39:10;6.50;;;3.00;;
56752;SDS011;42627;42.646;23.642;2024-02-23T17:41:15;5.28;;;2.95;;
56752;SDS011;42627;42.646;23.642;2024-02-23T17:43:16;4.40;;;2.45;;
56752;SDS011;42627;42.646;23.642;2024-02-23T17:45:36;6.30;;;3.33;;
56752;SDS011;42627;42.646;23.642;2024-02-23T17:49:50;7.00;;;2.67;;
56752;SDS011;42627;42.646;23.642;2024-02-23T17:51:52;7.57;;;3.72;;
56752;SDS011;42627;42.646;23.642;2024-02-23T17:53:53;6.90;;;3.88;;
56752;SDS011;42627;42.646;23.642;2024-02-23T17:58:08;6.18;;;3.15;;
56752;SDS011;42627;42.646;23.642;2024-02-23T18:00:10;7.90;;;3.40;;
56752;SDS011;42627;42.646;23.642;2024-02-23T18:02:11;9.02;;;4.78;;
56752;SDS011;42627;42.646;23.642;2024-02-23T18:04:22;18.77;;;7.50;;
56752;SDS011;42627;42.646;23.642;2024-02-23T18:06:24;27.67;;;12.07;;
56752;SDS011;42627;42.646;23.642;2024-02-23T18:08:25;50.22;;;20.25;;
56752;SDS011;42627;42.646;23.642;2024-02-23T18:10:26;31.85;;;13.10;;
56752;SDS011;42627;42.646;23.642;2024-02-23T18:12:27;12.45;;;5.97;;
56752;SDS011;42627;42.646;23.642;2024-02-23T18:16:51;14.90;;;7.18;;
56752;SDS011;42627;42.646;23.642;2024-02-23T18:18:57;11.40;;;4.88;;
56752;SDS011;42627;42.646;23.642;2024-02-23T18:20:59;12.27;;;4.45;;
56752;SDS011;42627;42.646;23.642;2024-02-23T18:23:00;13.95;;;6.00;;